sensor_id;sensor_type;location;lat;lon;timestamp;P1;durP1;ratioP1;P2;durP2;ratioP2
5465;SDS011;2755;50.728;7.108;2022-08-19T00:00:25;9.23;;;5.93;;
5465;SDS011;2755;50.728;7.108;2022-08-19T00:02:50;9.70;;;6.60;;
5465;SDS011;2755;50.728;7.108;2022-08-19T00:05:17;8.23;;;6.10;;
5465;SDS011;2755;50.728;7.108;2022-08-19T00:07:44;9.40;;;6.07;;
5465;SDS011;2755;50.728;7.108;2022-08-19T00:10:10;8.80;;;6.50;;
5465;SDS011;2755;50.728;7.108;2022-08-19T00:12:38;8.43;;;7.03;;
5465;SDS011;2755;50.728;7.108;2022-08-19T00:15:05;8.37;;;6.67;;
5465;SDS011;2755;50.728;7.108;2022-08-19T00:17:38;8.40;;;6.90;;
5465;SDS011;2755;50.728;7.108;2022-08-19T00:20:05;6.83;;;5.57;;
5465;SDS011;2755;50.728;7.108;2022-08-19T00:22:31;7.20;;;5.90;;
5465;SDS011;2755;50.728;7.108;2022-08-19T00:24:57;8.63;;;6.80;;
5465;SDS011;2755;50.728;7.108;2022-08-19T00:27:23;7.10;;;6.13;;
5465;SDS011;2755;50.728;7.108;2022-08-19T00:29:48;9.80;;;6.70;;
5465;SDS011;2755;50.728;7.108;2022-08-19T00:32:14;9.93;;;7.17;;
5465;SDS011;2755;50.728;7.108;2022-08-19T00:34:40;10.47;;;6.90;;
5465;SDS011;2755;50.728;7.108;2022-08-19T00:37:05;7.50;;;6.53;;
5465;SDS011;2755;50.728;7.108;2022-08-19T00:39:31;7.50;;;6.10;;
5465;SDS011;2755;50.728;7.108;2022-08-19T00:41:57;9.43;;;7.00;;
5465;SDS011;2755;50.728;7.108;2022-08-19T00:44:24;9.30;;;7.07;;
5465;SDS011;2755;50.728;7.108;2022-08-19T00:46:53;6.67;;;5.97;;
5465;SDS011;2755;50.728;7.108;2022-08-19T00:49:22;7.30;;;6.47;;
5465;SDS011;2755;50.728;7.108;2022-08-19T00:51:57;8.43;;;6.30;;
5465;SDS011;2755;50.728;7.108;2022-08-19T00:54:37;9.60;;;6.90;;
5465;SDS011;2755;50.728;7.108;2022-08-19T00:57:04;8.10;;;7.03;;
5465;SDS011;2755;50.728;7.108;2022-08-19T00:59:33;7.50;;;6.70;;
5465;SDS011;2755;50.728;7.108;2022-08-19T01:02:01;10.63;;;7.50;;
5465;SDS011;2755;50.728;7.108;2022-08-19T01:04:28;10.90;;;6.83;;
5465;SDS011;2755;50.728;7.108;2022-08-19T01:06:54;8.57;;;6.60;;
5465;SDS011;2755;50.728;7.108;2022-08-19T01:09:21;10.17;;;6.90;;
5465;SDS011;2755;50.728;7.108;2022-08-19T01:11:46;8.83;;;6.87;;
5465;SDS011;2755;50.728;7.108;2022-08-19T01:14:12;10.17;;;7.47;;
5465;SDS011;2755;50.728;7.108;2022-08-19T01:16:39;8.83;;;6.83;;
5465;SDS011;2755;50.728;7.108;2022-08-19T01:19:09;16.83;;;7.30;;
5465;SDS011;2755;50.728;7.108;2022-08-19T01:21:52;10.93;;;7.40;;
5465;SDS011;2755;50.728;7.108;2022-08-19T01:24:24;9.50;;;6.70;;
5465;SDS011;2755;50.728;7.108;2022-08-19T01:26:51;9.50;;;7.53;;
5465;SDS011;2755;50.728;7.108;2022-08-19T01:29:17;10.30;;;7.40;;
5465;SDS011;2755;50.728;7.108;2022-08-19T01:31:43;13.17;;;8.60;;
5465;SDS011;2755;50.728;7.108;2022-08-19T01:34:09;9.50;;;7.93;;
5465;SDS011;2755;50.728;7.108;2022-08-19T01:36:37;14.93;;;8.40;;
5465;SDS011;2755;50.728;7.108;2022-08-19T01:39:08;10.20;;;8.00;;
5465;SDS011;2755;50.728;7.108;2022-08-19T01:41:35;10.07;;;7.50;;
5465;SDS011;2755;50.728;7.108;2022-08-19T01:44:02;10.10;;;7.93;;
5465;SDS011;2755;50.728;7.108;2022-08-19T01:46:29;9.67;;;7.50;;
5465;SDS011;2755;50.728;7.108;2022-08-19T01:48:57;9.63;;;6.40;;
5465;SDS011;2755;50.728;7.108;2022-08-19T01:51:23;8.80;;;7.57;;
5465;SDS011;2755;50.728;7.108;2022-08-19T01:53:50;11.63;;;7.80;;
5465;SDS011;2755;50.728;7.108;2022-08-19T01:56:16;8.50;;;6.80;;
5465;SDS011;2755;50.728;7.108;2022-08-19T01:58:45;9.73;;;7.80;;
5465;SDS011;2755;50.728;7.108;2022-08-19T02:01:16;9.03;;;7.60;;
5465;SDS011;2755;50.728;7.108;2022-08-19T02:03:42;9.20;;;8.07;;
5465;SDS011;2755;50.728;7.108;2022-08-19T02:06:08;10.97;;;7.10;;
5465;SDS011;2755;50.728;7.108;2022-08-19T02:08:35;8.90;;;7.13;;
5465;SDS011;2755;50.728;7.108;2022-08-19T02:11:02;9.97;;;7.30;;
5465;SDS011;2755;50.728;7.108;2022-08-19T02:13:28;12.80;;;7.20;;
5465;SDS011;2755;50.728;7.108;2022-08-19T02:15:54;8.37;;;7.47;;
5465;SDS011;2755;50.728;7.108;2022-08-19T02:18:20;8.23;;;7.33;;
5465;SDS011;2755;50.728;7.108;2022-08-19T02:20:46;12.27;;;7.97;;
5465;SDS011;2755;50.728;7.108;2022-08-19T02:23:13;8.20;;;7.20;;
5465;SDS011;2755;50.728;7.108;2022-08-19T02:25:40;9.90;;;7.30;;
5465;SDS011;2755;50.728;7.108;2022-08-19T02:28:06;8.37;;;6.67;;
5465;SDS011;2755;50.728;7.108;2022-08-19T02:30:32;9.20;;;7.40;;
5465;SDS011;2755;50.728;7.108;2022-08-19T02:32:58;8.67;;;7.57;;
5465;SDS011;2755;50.728;7.108;2022-08-19T02:35:24;9.53;;;7.40;;
5465;SDS011;2755;50.728;7.108;2022-08-19T02:37:51;9.10;;;7.80;;
5465;SDS011;2755;50.728;7.108;2022-08-19T02:40:35;11.40;;;8.60;;
5465;SDS011;2755;50.728;7.108;2022-08-19T02:43:05;11.97;;;9.27;;
5465;SDS011;2755;50.728;7.108;2022-08-19T02:45:35;10.37;;;7.87;;
5465;SDS011;2755;50.728;7.108;2022-08-19T02:48:02;10.17;;;8.83;;
5465;SDS011;2755;50.728;7.108;2022-08-19T02:50:29;10.77;;;8.90;;
5465;SDS011;2755;50.728;7.108;2022-08-19T02:52:56;9.50;;;7.90;;
5465;SDS011;2755;50.728;7.108;2022-08-19T02:55:22;8.23;;;7.33;;
5465;SDS011;2755;50.728;7.108;2022-08-19T02:57:48;9.27;;;7.27;;
5465;SDS011;2755;50.728;7.108;2022-08-19T03:00:15;12.30;;;8.97;;
5465;SDS011;2755;50.728;7.108;2022-08-19T03:02:41;10.37;;;8.60;;
5465;SDS011;2755;50.728;7.108;2022-08-19T03:05:08;11.40;;;8.80;;
5465;SDS011;2755;50.728;7.108;2022-08-19T03:07:35;10.97;;;8.80;;
5465;SDS011;2755;50.728;7.108;2022-08-19T03:10:02;11.00;;;8.70;;
5465;SDS011;2755;50.728;7.108;2022-08-19T03:12:28;11.83;;;9.43;;
5465;SDS011;2755;50.728;7.108;2022-08-19T03:14:54;9.00;;;7.87;;
5465;SDS011;2755;50.728;7.108;2022-08-19T03:17:20;10.40;;;8.77;;
5465;SDS011;2755;50.728;7.108;2022-08-19T03:19:46;11.87;;;9.30;;
5465;SDS011;2755;50.728;7.108;2022-08-19T03:22:12;13.70;;;9.57;;
5465;SDS011;2755;50.728;7.108;2022-08-19T03:24:38;11.00;;;9.50;;
5465;SDS011;2755;50.728;7.108;2022-08-19T03:27:03;10.40;;;8.90;;
5465;SDS011;2755;50.728;7.108;2022-08-19T03:29:30;15.77;;;9.13;;
5465;SDS011;2755;50.728;7.108;2022-08-19T03:31:59;10.70;;;8.77;;
5465;SDS011;2755;50.728;7.108;2022-08-19T03:34:28;9.33;;;8.33;;
5465;SDS011;2755;50.728;7.108;2022-08-19T03:36:56;11.60;;;8.87;;
5465;SDS011;2755;50.728;7.108;2022-08-19T03:39:24;12.13;;;8.30;;
5465;SDS011;2755;50.728;7.108;2022-08-19T03:41:51;9.83;;;8.57;;
5465;SDS011;2755;50.728;7.108;2022-08-19T03:44:21;12.00;;;8.70;;
5465;SDS011;2755;50.728;7.108;2022-08-19T03:46:49;11.17;;;9.33;;
5465;SDS011;2755;50.728;7.108;2022-08-19T03:49:16;12.43;;;9.20;;
5465;SDS011;2755;50.728;7.108;2022-08-19T03:51:42;15.67;;;9.93;;
5465;SDS011;2755;50.728;7.108;2022-08-19T03:54:10;14.63;;;11.07;;
5465;SDS011;2755;50.728;7.108;2022-08-19T03:56:37;13.30;;;10.10;;
5465;SDS011;2755;50.728;7.108;2022-08-19T03:59:04;15.47;;;10.50;;
5465;SDS011;2755;50.728;7.108;2022-08-19T04:01:31;14.10;;;10.93;;
5465;SDS011;2755;50.728;7.108;2022-08-19T04:03:58;17.63;;;11.03;;
5465;SDS011;2755;50.728;7.108;2022-08-19T04:06:26;15.07;;;11.70;;
5465;SDS011;2755;50.728;7.108;2022-08-19T04:08:55;16.70;;;11.50;;
5465;SDS011;2755;50.728;7.108;2022-08-19T04:11:25;16.07;;;12.10;;
5465;SDS011;2755;50.728;7.108;2022-08-19T04:13:53;14.80;;;11.17;;
5465;SDS011;2755;50.728;7.108;2022-08-19T04:16:19;16.37;;;11.47;;
5465;SDS011;2755;50.728;7.108;2022-08-19T04:18:47;14.30;;;11.83;;
5465;SDS011;2755;50.728;7.108;2022-08-19T04:21:21;15.53;;;11.00;;
5465;SDS011;2755;50.728;7.108;2022-08-19T04:23:48;15.53;;;11.40;;
5465;SDS011;2755;50.728;7.108;2022-08-19T04:26:14;11.87;;;10.00;;
5465;SDS011;2755;50.728;7.108;2022-08-19T04:28:41;12.30;;;10.63;;
5465;SDS011;2755;50.728;7.108;2022-08-19T04:31:21;14.80;;;11.10;;
5465;SDS011;2755;50.728;7.108;2022-08-19T04:33:55;16.30;;;12.57;;
5465;SDS011;2755;50.728;7.108;2022-08-19T04:36:23;18.53;;;13.37;;
5465;SDS011;2755;50.728;7.108;2022-08-19T04:38:53;16.70;;;11.90;;
5465;SDS011;2755;50.728;7.108;2022-08-19T04:41:24;18.73;;;12.70;;
5465;SDS011;2755;50.728;7.108;2022-08-19T04:44:09;17.87;;;13.20;;
5465;SDS011;2755;50.728;7.108;2022-08-19T04:46:34;15.27;;;13.30;;
5465;SDS011;2755;50.728;7.108;2022-08-19T04:49:01;22.00;;;16.27;;
5465;SDS011;2755;50.728;7.108;2022-08-19T04:51:29;19.23;;;14.90;;
5465;SDS011;2755;50.728;7.108;2022-08-19T04:53:56;17.47;;;12.50;;
5465;SDS011;2755;50.728;7.108;2022-08-19T04:56:22;15.03;;;12.40;;
5465;SDS011;2755;50.728;7.108;2022-08-19T04:58:51;15.87;;;12.20;;
5465;SDS011;2755;50.728;7.108;2022-08-19T05:01:19;18.13;;;14.00;;
5465;SDS011;2755;50.728;7.108;2022-08-19T05:03:49;18.10;;;13.53;;
5465;SDS011;2755;50.728;7.108;2022-08-19T05:06:15;18.60;;;15.00;;
5465;SDS011;2755;50.728;7.108;2022-08-19T05:08:43;15.50;;;13.00;;
5465;SDS011;2755;50.728;7.108;2022-08-19T05:11:10;20.17;;;15.00;;
5465;SDS011;2755;50.728;7.108;2022-08-19T05:13:36;15.73;;;12.70;;
5465;SDS011;2755;50.728;7.108;2022-08-19T05:16:02;16.93;;;12.97;;
5465;SDS011;2755;50.728;7.108;2022-08-19T05:18:28;15.53;;;12.70;;
5465;SDS011;2755;50.728;7.108;2022-08-19T05:21:15;19.67;;;14.07;;
5465;SDS011;2755;50.728;7.108;2022-08-19T05:24:00;20.33;;;15.07;;
5465;SDS011;2755;50.728;7.108;2022-08-19T05:26:27;20.03;;;15.30;;
5465;SDS011;2755;50.728;7.108;2022-08-19T05:28:53;22.23;;;16.50;;
5465;SDS011;2755;50.728;7.108;2022-08-19T05:31:20;18.70;;;14.97;;
5465;SDS011;2755;50.728;7.108;2022-08-19T05:33:46;25.50;;;17.60;;
5465;SDS011;2755;50.728;7.108;2022-08-19T05:36:12;33.30;;;20.77;;
5465;SDS011;2755;50.728;7.108;2022-08-19T05:38:38;23.90;;;16.73;;
5465;SDS011;2755;50.728;7.108;2022-08-19T05:41:11;19.80;;;14.67;;
5465;SDS011;2755;50.728;7.108;2022-08-19T05:43:38;23.67;;;17.33;;
5465;SDS011;2755;50.728;7.108;2022-08-19T05:46:04;21.10;;;16.13;;
5465;SDS011;2755;50.728;7.108;2022-08-19T05:48:32;28.67;;;20.00;;
5465;SDS011;2755;50.728;7.108;2022-08-19T05:51:02;29.20;;;20.43;;
5465;SDS011;2755;50.728;7.108;2022-08-19T05:53:31;36.23;;;24.50;;
5465;SDS011;2755;50.728;7.108;2022-08-19T05:56:02;24.57;;;18.40;;
5465;SDS011;2755;50.728;7.108;2022-08-19T05:58:29;26.60;;;17.53;;
5465;SDS011;2755;50.728;7.108;2022-08-19T06:00:57;25.40;;;18.73;;
5465;SDS011;2755;50.728;7.108;2022-08-19T06:03:23;21.30;;;15.77;;
5465;SDS011;2755;50.728;7.108;2022-08-19T06:05:49;27.03;;;20.90;;
5465;SDS011;2755;50.728;7.108;2022-08-19T06:08:14;26.30;;;18.30;;
5465;SDS011;2755;50.728;7.108;2022-08-19T06:10:43;25.10;;;18.80;;
5465;SDS011;2755;50.728;7.108;2022-08-19T06:13:09;29.27;;;19.90;;
5465;SDS011;2755;50.728;7.108;2022-08-19T06:15:35;25.20;;;18.07;;
5465;SDS011;2755;50.728;7.108;2022-08-19T06:18:01;26.70;;;20.23;;
5465;SDS011;2755;50.728;7.108;2022-08-19T06:20:28;21.63;;;16.13;;
5465;SDS011;2755;50.728;7.108;2022-08-19T06:22:54;24.37;;;17.30;;
5465;SDS011;2755;50.728;7.108;2022-08-19T06:25:20;30.50;;;19.70;;
5465;SDS011;2755;50.728;7.108;2022-08-19T06:27:45;24.70;;;17.37;;
5465;SDS011;2755;50.728;7.108;2022-08-19T06:30:11;25.93;;;17.40;;
5465;SDS011;2755;50.728;7.108;2022-08-19T06:32:37;30.30;;;20.83;;
5465;SDS011;2755;50.728;7.108;2022-08-19T06:35:04;29.80;;;17.07;;
5465;SDS011;2755;50.728;7.108;2022-08-19T06:37:30;19.80;;;14.60;;
5465;SDS011;2755;50.728;7.108;2022-08-19T06:39:56;30.53;;;18.97;;
5465;SDS011;2755;50.728;7.108;2022-08-19T06:42:21;29.00;;;17.80;;
5465;SDS011;2755;50.728;7.108;2022-08-19T06:44:47;28.77;;;19.00;;
5465;SDS011;2755;50.728;7.108;2022-08-19T06:47:15;23.37;;;16.30;;
5465;SDS011;2755;50.728;7.108;2022-08-19T06:49:42;32.10;;;20.10;;
5465;SDS011;2755;50.728;7.108;2022-08-19T06:52:08;22.07;;;15.17;;
5465;SDS011;2755;50.728;7.108;2022-08-19T06:54:38;27.80;;;18.83;;
5465;SDS011;2755;50.728;7.108;2022-08-19T06:57:05;27.13;;;19.43;;
5465;SDS011;2755;50.728;7.108;2022-08-19T06:59:32;24.37;;;15.67;;
5465;SDS011;2755;50.728;7.108;2022-08-19T07:01:58;22.03;;;14.60;;
5465;SDS011;2755;50.728;7.108;2022-08-19T07:04:28;17.23;;;12.30;;
5465;SDS011;2755;50.728;7.108;2022-08-19T07:06:57;23.27;;;17.33;;
5465;SDS011;2755;50.728;7.108;2022-08-19T07:09:37;19.80;;;15.23;;
5465;SDS011;2755;50.728;7.108;2022-08-19T07:12:05;25.73;;;18.23;;
5465;SDS011;2755;50.728;7.108;2022-08-19T07:14:33;22.43;;;14.70;;
5465;SDS011;2755;50.728;7.108;2022-08-19T07:17:02;21.07;;;13.80;;
5465;SDS011;2755;50.728;7.108;2022-08-19T07:19:30;34.97;;;22.33;;
5465;SDS011;2755;50.728;7.108;2022-08-19T07:21:56;20.73;;;13.37;;
5465;SDS011;2755;50.728;7.108;2022-08-19T07:24:25;16.83;;;11.97;;
5465;SDS011;2755;50.728;7.108;2022-08-19T07:26:51;19.07;;;14.77;;
5465;SDS011;2755;50.728;7.108;2022-08-19T07:29:21;15.90;;;11.13;;
5465;SDS011;2755;50.728;7.108;2022-08-19T07:31:48;21.63;;;14.37;;
5465;SDS011;2755;50.728;7.108;2022-08-19T07:34:15;17.00;;;12.97;;
5465;SDS011;2755;50.728;7.108;2022-08-19T07:36:41;18.83;;;14.13;;
5465;SDS011;2755;50.728;7.108;2022-08-19T07:39:09;15.97;;;11.30;;
5465;SDS011;2755;50.728;7.108;2022-08-19T07:41:43;21.83;;;13.47;;
5465;SDS011;2755;50.728;7.108;2022-08-19T07:44:10;18.40;;;12.90;;
5465;SDS011;2755;50.728;7.108;2022-08-19T07:46:39;18.20;;;13.57;;
5465;SDS011;2755;50.728;7.108;2022-08-19T07:49:09;17.77;;;11.60;;
5465;SDS011;2755;50.728;7.108;2022-08-19T07:51:39;21.27;;;14.17;;
5465;SDS011;2755;50.728;7.108;2022-08-19T07:54:05;14.33;;;10.40;;
5465;SDS011;2755;50.728;7.108;2022-08-19T07:56:31;18.87;;;14.10;;
5465;SDS011;2755;50.728;7.108;2022-08-19T07:58:57;21.00;;;12.80;;
5465;SDS011;2755;50.728;7.108;2022-08-19T08:01:24;18.43;;;12.13;;
5465;SDS011;2755;50.728;7.108;2022-08-19T08:03:53;16.53;;;12.27;;
5465;SDS011;2755;50.728;7.108;2022-08-19T08:06:39;22.17;;;14.77;;
5465;SDS011;2755;50.728;7.108;2022-08-19T08:09:29;18.40;;;13.57;;
5465;SDS011;2755;50.728;7.108;2022-08-19T08:12:05;25.57;;;18.10;;
5465;SDS011;2755;50.728;7.108;2022-08-19T08:17:09;20.40;;;12.83;;
5465;SDS011;2755;50.728;7.108;2022-08-19T08:19:36;22.43;;;14.60;;
5465;SDS011;2755;50.728;7.108;2022-08-19T08:22:03;21.50;;;13.63;;
5465;SDS011;2755;50.728;7.108;2022-08-19T08:24:31;18.80;;;12.40;;
5465;SDS011;2755;50.728;7.108;2022-08-19T08:26:59;16.23;;;12.23;;
5465;SDS011;2755;50.728;7.108;2022-08-19T08:29:29;20.13;;;11.53;;
5465;SDS011;2755;50.728;7.108;2022-08-19T08:31:56;18.70;;;12.50;;
5465;SDS011;2755;50.728;7.108;2022-08-19T08:34:23;15.83;;;11.37;;
5465;SDS011;2755;50.728;7.108;2022-08-19T08:36:48;12.40;;;9.60;;
5465;SDS011;2755;50.728;7.108;2022-08-19T08:39:16;17.83;;;11.90;;
5465;SDS011;2755;50.728;7.108;2022-08-19T08:41:56;16.23;;;11.43;;
5465;SDS011;2755;50.728;7.108;2022-08-19T08:44:26;11.23;;;7.50;;
5465;SDS011;2755;50.728;7.108;2022-08-19T08:47:01;14.17;;;10.00;;
5465;SDS011;2755;50.728;7.108;2022-08-19T08:49:51;16.43;;;9.10;;
5465;SDS011;2755;50.728;7.108;2022-08-19T08:52:25;13.87;;;10.30;;
5465;SDS011;2755;50.728;7.108;2022-08-19T08:54:53;23.60;;;13.30;;
5465;SDS011;2755;50.728;7.108;2022-08-19T08:57:30;14.47;;;10.73;;
5465;SDS011;2755;50.728;7.108;2022-08-19T09:00:02;17.07;;;10.30;;
5465;SDS011;2755;50.728;7.108;2022-08-19T09:02:33;18.10;;;13.77;;
5465;SDS011;2755;50.728;7.108;2022-08-19T09:04:59;20.13;;;13.30;;
5465;SDS011;2755;50.728;7.108;2022-08-19T09:07:26;13.20;;;9.70;;
5465;SDS011;2755;50.728;7.108;2022-08-19T09:15:38;19.00;;;11.40;;
5465;SDS011;2755;50.728;7.108;2022-08-19T09:18:09;15.20;;;11.03;;
5465;SDS011;2755;50.728;7.108;2022-08-19T09:20:36;20.07;;;11.90;;
5465;SDS011;2755;50.728;7.108;2022-08-19T09:23:02;21.87;;;13.73;;
5465;SDS011;2755;50.728;7.108;2022-08-19T09:25:27;18.50;;;11.77;;
5465;SDS011;2755;50.728;7.108;2022-08-19T09:27:54;22.20;;;13.73;;
5465;SDS011;2755;50.728;7.108;2022-08-19T09:30:25;32.90;;;16.97;;
5465;SDS011;2755;50.728;7.108;2022-08-19T09:32:53;20.77;;;13.60;;
5465;SDS011;2755;50.728;7.108;2022-08-19T09:35:23;19.80;;;12.20;;
5465;SDS011;2755;50.728;7.108;2022-08-19T09:37:51;26.70;;;17.00;;
5465;SDS011;2755;50.728;7.108;2022-08-19T09:40:18;25.77;;;17.30;;
5465;SDS011;2755;50.728;7.108;2022-08-19T09:42:44;26.10;;;18.37;;
5465;SDS011;2755;50.728;7.108;2022-08-19T09:45:12;24.83;;;15.70;;
5465;SDS011;2755;50.728;7.108;2022-08-19T09:47:39;20.63;;;13.50;;
5465;SDS011;2755;50.728;7.108;2022-08-19T09:50:06;16.00;;;11.03;;
5465;SDS011;2755;50.728;7.108;2022-08-19T09:52:33;23.53;;;16.07;;
5465;SDS011;2755;50.728;7.108;2022-08-19T09:55:02;21.37;;;12.50;;
5465;SDS011;2755;50.728;7.108;2022-08-19T09:57:32;15.10;;;11.20;;
5465;SDS011;2755;50.728;7.108;2022-08-19T09:59:58;16.73;;;11.97;;
5465;SDS011;2755;50.728;7.108;2022-08-19T10:02:24;20.33;;;13.77;;
5465;SDS011;2755;50.728;7.108;2022-08-19T10:04:50;18.87;;;11.23;;
5465;SDS011;2755;50.728;7.108;2022-08-19T10:07:34;15.63;;;10.93;;
5465;SDS011;2755;50.728;7.108;2022-08-19T10:10:01;19.00;;;12.57;;
5465;SDS011;2755;50.728;7.108;2022-08-19T10:12:28;21.07;;;14.57;;
5465;SDS011;2755;50.728;7.108;2022-08-19T10:14:53;16.50;;;11.97;;
5465;SDS011;2755;50.728;7.108;2022-08-19T10:17:19;20.03;;;13.20;;
5465;SDS011;2755;50.728;7.108;2022-08-19T10:19:45;22.33;;;12.30;;
5465;SDS011;2755;50.728;7.108;2022-08-19T10:22:12;11.67;;;10.23;;
5465;SDS011;2755;50.728;7.108;2022-08-19T10:24:38;17.20;;;10.83;;
5465;SDS011;2755;50.728;7.108;2022-08-19T10:27:04;21.00;;;11.90;;
5465;SDS011;2755;50.728;7.108;2022-08-19T10:29:31;16.90;;;11.77;;
5465;SDS011;2755;50.728;7.108;2022-08-19T10:32:03;17.90;;;13.10;;
5465;SDS011;2755;50.728;7.108;2022-08-19T10:34:32;25.07;;;16.53;;
5465;SDS011;2755;50.728;7.108;2022-08-19T10:36:59;26.10;;;16.40;;
5465;SDS011;2755;50.728;7.108;2022-08-19T10:39:25;17.43;;;13.40;;
5465;SDS011;2755;50.728;7.108;2022-08-19T10:41:54;19.13;;;12.30;;
5465;SDS011;2755;50.728;7.108;2022-08-19T10:44:21;18.90;;;14.30;;
5465;SDS011;2755;50.728;7.108;2022-08-19T10:46:48;13.00;;;10.10;;
5465;SDS011;2755;50.728;7.108;2022-08-19T10:49:14;11.53;;;10.10;;
5465;SDS011;2755;50.728;7.108;2022-08-19T10:51:40;13.73;;;9.97;;
5465;SDS011;2755;50.728;7.108;2022-08-19T10:54:24;23.80;;;16.30;;
5465;SDS011;2755;50.728;7.108;2022-08-19T10:57:10;14.47;;;10.00;;
5465;SDS011;2755;50.728;7.108;2022-08-19T10:59:36;13.57;;;11.80;;
5465;SDS011;2755;50.728;7.108;2022-08-19T11:02:03;12.00;;;9.40;;
5465;SDS011;2755;50.728;7.108;2022-08-19T11:04:30;22.73;;;12.73;;
5465;SDS011;2755;50.728;7.108;2022-08-19T11:06:58;16.47;;;10.80;;
5465;SDS011;2755;50.728;7.108;2022-08-19T11:09:24;13.27;;;8.87;;
5465;SDS011;2755;50.728;7.108;2022-08-19T11:11:52;18.23;;;11.03;;
5465;SDS011;2755;50.728;7.108;2022-08-19T11:14:18;12.70;;;10.10;;
5465;SDS011;2755;50.728;7.108;2022-08-19T11:16:45;18.20;;;9.60;;
5465;SDS011;2755;50.728;7.108;2022-08-19T11:19:12;11.13;;;7.30;;
5465;SDS011;2755;50.728;7.108;2022-08-19T11:21:42;10.80;;;7.20;;
5465;SDS011;2755;50.728;7.108;2022-08-19T11:24:13;8.57;;;6.63;;
5465;SDS011;2755;50.728;7.108;2022-08-19T11:26:40;14.97;;;8.50;;
5465;SDS011;2755;50.728;7.108;2022-08-19T11:29:08;13.50;;;7.90;;
5465;SDS011;2755;50.728;7.108;2022-08-19T11:31:39;16.93;;;7.30;;
5465;SDS011;2755;50.728;7.108;2022-08-19T11:34:06;9.90;;;7.20;;
5465;SDS011;2755;50.728;7.108;2022-08-19T11:36:34;9.87;;;7.00;;
5465;SDS011;2755;50.728;7.108;2022-08-19T11:39:02;9.33;;;6.10;;
5465;SDS011;2755;50.728;7.108;2022-08-19T11:41:29;6.90;;;5.00;;
5465;SDS011;2755;50.728;7.108;2022-08-19T11:43:55;10.60;;;5.97;;
5465;SDS011;2755;50.728;7.108;2022-08-19T11:46:22;6.87;;;5.70;;
5465;SDS011;2755;50.728;7.108;2022-08-19T11:48:54;9.37;;;6.20;;
5465;SDS011;2755;50.728;7.108;2022-08-19T11:51:21;10.57;;;6.23;;
5465;SDS011;2755;50.728;7.108;2022-08-19T11:53:50;12.73;;;5.53;;
5465;SDS011;2755;50.728;7.108;2022-08-19T11:56:17;11.57;;;7.30;;
5465;SDS011;2755;50.728;7.108;2022-08-19T11:58:43;8.10;;;6.40;;
5465;SDS011;2755;50.728;7.108;2022-08-19T12:01:10;16.23;;;6.83;;
5465;SDS011;2755;50.728;7.108;2022-08-19T12:03:38;7.80;;;6.70;;
5465;SDS011;2755;50.728;7.108;2022-08-19T12:06:06;6.77;;;5.33;;
5465;SDS011;2755;50.728;7.108;2022-08-19T12:08:33;16.37;;;6.43;;
5465;SDS011;2755;50.728;7.108;2022-08-19T12:10:59;6.73;;;5.33;;
5465;SDS011;2755;50.728;7.108;2022-08-19T12:13:26;9.70;;;5.70;;
5465;SDS011;2755;50.728;7.108;2022-08-19T12:15:53;7.03;;;5.63;;
5465;SDS011;2755;50.728;7.108;2022-08-19T12:18:19;7.17;;;6.40;;
5465;SDS011;2755;50.728;7.108;2022-08-19T12:20:45;8.80;;;7.00;;
5465;SDS011;2755;50.728;7.108;2022-08-19T12:23:11;14.63;;;8.03;;
5465;SDS011;2755;50.728;7.108;2022-08-19T12:25:37;9.97;;;7.43;;
5465;SDS011;2755;50.728;7.108;2022-08-19T12:28:15;12.53;;;7.60;;
5465;SDS011;2755;50.728;7.108;2022-08-19T12:30:41;10.73;;;8.17;;
5465;SDS011;2755;50.728;7.108;2022-08-19T12:33:07;10.00;;;6.90;;
5465;SDS011;2755;50.728;7.108;2022-08-19T12:35:33;12.30;;;7.10;;
5465;SDS011;2755;50.728;7.108;2022-08-19T12:37:59;16.70;;;7.33;;
5465;SDS011;2755;50.728;7.108;2022-08-19T12:40:26;8.20;;;6.47;;
5465;SDS011;2755;50.728;7.108;2022-08-19T12:42:52;12.00;;;6.70;;
5465;SDS011;2755;50.728;7.108;2022-08-19T12:45:18;12.70;;;6.30;;
5465;SDS011;2755;50.728;7.108;2022-08-19T12:47:44;10.17;;;7.03;;
5465;SDS011;2755;50.728;7.108;2022-08-19T12:50:11;14.77;;;7.87;;
5465;SDS011;2755;50.728;7.108;2022-08-19T12:52:37;18.40;;;9.53;;
5465;SDS011;2755;50.728;7.108;2022-08-19T12:55:04;10.63;;;8.00;;
5465;SDS011;2755;50.728;7.108;2022-08-19T12:57:31;11.10;;;8.00;;
5465;SDS011;2755;50.728;7.108;2022-08-19T13:00:00;10.43;;;8.07;;
5465;SDS011;2755;50.728;7.108;2022-08-19T13:02:28;16.53;;;10.50;;
5465;SDS011;2755;50.728;7.108;2022-08-19T13:04:56;10.30;;;8.93;;
5465;SDS011;2755;50.728;7.108;2022-08-19T13:07:23;15.10;;;9.73;;
5465;SDS011;2755;50.728;7.108;2022-08-19T13:09:51;11.40;;;9.00;;
5465;SDS011;2755;50.728;7.108;2022-08-19T13:12:17;14.03;;;9.47;;
5465;SDS011;2755;50.728;7.108;2022-08-19T13:14:45;12.20;;;8.40;;
5465;SDS011;2755;50.728;7.108;2022-08-19T13:17:14;17.73;;;12.70;;
5465;SDS011;2755;50.728;7.108;2022-08-19T13:19:40;14.40;;;10.67;;
5465;SDS011;2755;50.728;7.108;2022-08-19T13:22:06;11.10;;;8.47;;
5465;SDS011;2755;50.728;7.108;2022-08-19T13:24:32;11.90;;;8.07;;
5465;SDS011;2755;50.728;7.108;2022-08-19T13:26:59;9.40;;;7.07;;
5465;SDS011;2755;50.728;7.108;2022-08-19T13:29:25;9.00;;;7.53;;
5465;SDS011;2755;50.728;7.108;2022-08-19T13:32:10;11.23;;;7.27;;
5465;SDS011;2755;50.728;7.108;2022-08-19T13:34:58;11.83;;;9.03;;
5465;SDS011;2755;50.728;7.108;2022-08-19T13:37:24;11.37;;;7.00;;
5465;SDS011;2755;50.728;7.108;2022-08-19T13:40:15;11.80;;;8.13;;
5465;SDS011;2755;50.728;7.108;2022-08-19T13:42:43;16.47;;;8.13;;
5465;SDS011;2755;50.728;7.108;2022-08-19T13:45:11;15.63;;;9.10;;
5465;SDS011;2755;50.728;7.108;2022-08-19T13:47:38;12.77;;;8.90;;
5465;SDS011;2755;50.728;7.108;2022-08-19T13:50:08;15.73;;;10.40;;
5465;SDS011;2755;50.728;7.108;2022-08-19T13:52:36;11.00;;;8.70;;
5465;SDS011;2755;50.728;7.108;2022-08-19T13:55:03;15.63;;;9.10;;
5465;SDS011;2755;50.728;7.108;2022-08-19T13:57:29;11.83;;;8.27;;
5465;SDS011;2755;50.728;7.108;2022-08-19T13:59:55;14.10;;;8.30;;
5465;SDS011;2755;50.728;7.108;2022-08-19T14:02:22;10.00;;;7.70;;
5465;SDS011;2755;50.728;7.108;2022-08-19T14:04:48;11.50;;;8.53;;
5465;SDS011;2755;50.728;7.108;2022-08-19T14:07:14;11.73;;;8.13;;
5465;SDS011;2755;50.728;7.108;2022-08-19T14:09:41;12.00;;;7.90;;
5465;SDS011;2755;50.728;7.108;2022-08-19T14:12:06;8.57;;;6.50;;
5465;SDS011;2755;50.728;7.108;2022-08-19T14:14:36;14.10;;;8.27;;
5465;SDS011;2755;50.728;7.108;2022-08-19T14:17:08;9.00;;;6.47;;
5465;SDS011;2755;50.728;7.108;2022-08-19T14:19:34;11.00;;;7.07;;
5465;SDS011;2755;50.728;7.108;2022-08-19T14:22:00;9.73;;;7.13;;
5465;SDS011;2755;50.728;7.108;2022-08-19T14:24:27;12.60;;;7.60;;
5465;SDS011;2755;50.728;7.108;2022-08-19T14:26:53;12.73;;;7.80;;
5465;SDS011;2755;50.728;7.108;2022-08-19T14:29:19;15.33;;;7.63;;
5465;SDS011;2755;50.728;7.108;2022-08-19T14:31:44;12.50;;;8.63;;
5465;SDS011;2755;50.728;7.108;2022-08-19T14:34:10;11.30;;;7.90;;
5465;SDS011;2755;50.728;7.108;2022-08-19T14:36:37;10.60;;;8.00;;
5465;SDS011;2755;50.728;7.108;2022-08-19T14:39:03;11.70;;;8.70;;
5465;SDS011;2755;50.728;7.108;2022-08-19T14:41:30;13.43;;;8.73;;
5465;SDS011;2755;50.728;7.108;2022-08-19T14:43:56;12.70;;;7.10;;
5465;SDS011;2755;50.728;7.108;2022-08-19T14:46:23;14.70;;;8.37;;
5465;SDS011;2755;50.728;7.108;2022-08-19T14:48:51;13.13;;;8.20;;
5465;SDS011;2755;50.728;7.108;2022-08-19T14:51:17;10.87;;;7.57;;
5465;SDS011;2755;50.728;7.108;2022-08-19T14:53:44;7.70;;;6.07;;
5465;SDS011;2755;50.728;7.108;2022-08-19T14:56:14;9.50;;;6.97;;
5465;SDS011;2755;50.728;7.108;2022-08-19T14:58:41;13.87;;;7.50;;
5465;SDS011;2755;50.728;7.108;2022-08-19T15:01:08;10.17;;;7.07;;
5465;SDS011;2755;50.728;7.108;2022-08-19T15:03:35;17.30;;;7.73;;
5465;SDS011;2755;50.728;7.108;2022-08-19T15:06:02;11.50;;;7.37;;
5465;SDS011;2755;50.728;7.108;2022-08-19T15:08:30;12.93;;;8.17;;
5465;SDS011;2755;50.728;7.108;2022-08-19T15:10:57;8.80;;;6.77;;